sensor_id;sensor_type;location;lat;lon;timestamp;temperature;humidity
71098;SHT35;58754;47.622;-2.986;2023-04-01T00:00:55;17.72;60.42
71098;SHT35;58754;47.622;-2.986;2023-04-01T00:03:22;17.76;60.46
71098;SHT35;58754;47.622;-2.986;2023-04-01T00:05:49;17.73;60.45
71098;SHT35;58754;47.622;-2.986;2023-04-01T00:08:15;17.73;60.44
71098;SHT35;58754;47.622;-2.986;2023-04-01T00:10:41;17.73;60.44
71098;SHT35;58754;47.622;-2.986;2023-04-01T00:13:07;17.73;60.45
71098;SHT35;58754;47.622;-2.986;2023-04-01T00:15:33;17.72;60.41
71098;SHT35;58754;47.622;-2.986;2023-04-01T00:17:59;17.75;60.48
71098;SHT35;58754;47.622;-2.986;2023-04-01T00:20:26;17.73;60.48
71098;SHT35;58754;47.622;-2.986;2023-04-01T00:22:52;17.71;60.48
71098;SHT35;58754;47.622;-2.986;2023-04-01T00:25:18;17.73;60.47
71098;SHT35;58754;47.622;-2.986;2023-04-01T00:27:44;17.72;60.46
71098;SHT35;58754;47.622;-2.986;2023-04-01T00:30:10;17.75;60.45
71098;SHT35;58754;47.622;-2.986;2023-04-01T00:32:36;17.72;60.46
71098;SHT35;58754;47.622;-2.986;2023-04-01T00:35:03;17.75;60.45
71098;SHT35;58754;47.622;-2.986;2023-04-01T00:37:29;17.72;60.47
71098;SHT35;58754;47.622;-2.986;2023-04-01T00:39:55;17.72;60.49
71098;SHT35;58754;47.622;-2.986;2023-04-01T00:42:21;17.72;60.48
71098;SHT35;58754;47.622;-2.986;2023-04-01T00:44:54;17.72;60.45
71098;SHT35;58754;47.622;-2.986;2023-04-01T00:47:21;17.72;60.47
71098;SHT35;58754;47.622;-2.986;2023-04-01T00:49:50;17.72;60.51
71098;SHT35;58754;47.622;-2.986;2023-04-01T00:52:19;17.73;60.47
71098;SHT35;58754;47.622;-2.986;2023-04-01T00:54:48;17.71;60.46
71098;SHT35;58754;47.622;-2.986;2023-04-01T00:57:21;17.72;60.47
71098;SHT35;58754;47.622;-2.986;2023-04-01T00:59:53;17.72;60.53
71098;SHT35;58754;47.622;-2.986;2023-04-01T01:02:20;17.71;60.49
71098;SHT35;58754;47.622;-2.986;2023-04-01T01:04:46;17.72;60.49
71098;SHT35;58754;47.622;-2.986;2023-04-01T01:12:29;17.73;60.48
71098;SHT35;58754;47.622;-2.986;2023-04-01T01:20:24;17.73;60.49
71098;SHT35;58754;47.622;-2.986;2023-04-01T01:37:17;17.71;60.45
71098;SHT35;58754;47.622;-2.986;2023-04-01T01:39:51;17.71;60.51
71098;SHT35;58754;47.622;-2.986;2023-04-01T01:42:20;17.69;60.46
71098;SHT35;58754;47.622;-2.986;2023-04-01T01:44:49;17.68;60.46
71098;SHT35;58754;47.622;-2.986;2023-04-01T01:47:17;17.69;60.49
71098;SHT35;58754;47.622;-2.986;2023-04-01T01:49:45;17.71;60.46
71098;SHT35;58754;47.622;-2.986;2023-04-01T01:52:12;17.69;60.46
71098;SHT35;58754;47.622;-2.986;2023-04-01T01:54:53;17.69;60.43
71098;SHT35;58754;47.622;-2.986;2023-04-01T01:57:28;17.69;60.43
71098;SHT35;58754;47.622;-2.986;2023-04-01T01:59:59;17.69;60.46
71098;SHT35;58754;47.622;-2.986;2023-04-01T02:02:27;17.68;60.44
71098;SHT35;58754;47.622;-2.986;2023-04-01T02:04:57;17.69;60.46
71098;SHT35;58754;47.622;-2.986;2023-04-01T02:07:27;17.68;60.44
71098;SHT35;58754;47.622;-2.986;2023-04-01T02:09:54;17.68;60.45
71098;SHT35;58754;47.622;-2.986;2023-04-01T02:12:21;17.69;60.46
71098;SHT35;58754;47.622;-2.986;2023-04-01T02:15:08;17.71;60.42
71098;SHT35;58754;47.622;-2.986;2023-04-01T02:17:39;17.69;60.46
71098;SHT35;58754;47.622;-2.986;2023-04-01T02:20:13;17.69;60.49
71098;SHT35;58754;47.622;-2.986;2023-04-01T02:22:44;17.69;60.47
71098;SHT35;58754;47.622;-2.986;2023-04-01T02:25:15;17.69;60.49
71098;SHT35;58754;47.622;-2.986;2023-04-01T02:27:43;17.69;60.50
71098;SHT35;58754;47.622;-2.986;2023-04-01T02:30:11;17.68;60.44
71098;SHT35;58754;47.622;-2.986;2023-04-01T02:32:38;17.68;60.51
71098;SHT35;58754;47.622;-2.986;2023-04-01T02:35:09;17.69;60.49
71098;SHT35;58754;47.622;-2.986;2023-04-01T02:37:37;17.66;60.47
71098;SHT35;58754;47.622;-2.986;2023-04-01T02:40:06;17.69;60.53
71098;SHT35;58754;47.622;-2.986;2023-04-01T02:42:33;17.68;60.46
71098;SHT35;58754;47.622;-2.986;2023-04-01T02:44:59;17.68;60.49
71098;SHT35;58754;47.622;-2.986;2023-04-01T02:47:25;17.69;60.50
71098;SHT35;58754;47.622;-2.986;2023-04-01T02:49:50;17.68;60.51
71098;SHT35;58754;47.622;-2.986;2023-04-01T02:52:16;17.69;60.47
71098;SHT35;58754;47.622;-2.986;2023-04-01T02:54:42;17.66;60.49
71098;SHT35;58754;47.622;-2.986;2023-04-01T02:57:07;17.68;60.51
71098;SHT35;58754;47.622;-2.986;2023-04-01T02:59:33;17.66;60.52
71098;SHT35;58754;47.622;-2.986;2023-04-01T03:01:59;17.68;60.51
71098;SHT35;58754;47.622;-2.986;2023-04-01T03:04:24;17.69;60.53
71098;SHT35;58754;47.622;-2.986;2023-04-01T03:06:50;17.71;60.50
71098;SHT35;58754;47.622;-2.986;2023-04-01T03:09:16;17.66;60.50
71098;SHT35;58754;47.622;-2.986;2023-04-01T03:11:42;17.69;60.48
71098;SHT35;58754;47.622;-2.986;2023-04-01T03:14:08;17.68;60.47
71098;SHT35;58754;47.622;-2.986;2023-04-01T03:16:33;17.68;60.50
71098;SHT35;58754;47.622;-2.986;2023-04-01T03:18:59;17.69;60.47
71098;SHT35;58754;47.622;-2.986;2023-04-01T03:21:27;17.69;60.49
71098;SHT35;58754;47.622;-2.986;2023-04-01T03:23:52;17.66;60.51
71098;SHT35;58754;47.622;-2.986;2023-04-01T03:26:19;17.68;60.47
71098;SHT35;58754;47.622;-2.986;2023-04-01T03:28:45;17.68;60.49
71098;SHT35;58754;47.622;-2.986;2023-04-01T03:31:11;17.66;60.51
71098;SHT35;58754;47.622;-2.986;2023-04-01T03:33:37;17.66;60.50
71098;SHT35;58754;47.622;-2.986;2023-04-01T03:36:03;17.65;60.46
71098;SHT35;58754;47.622;-2.986;2023-04-01T03:38:35;17.69;60.50
71098;SHT35;58754;47.622;-2.986;2023-04-01T03:41:01;17.66;60.48
71098;SHT35;58754;47.622;-2.986;2023-04-01T03:43:27;17.69;60.50
71098;SHT35;58754;47.622;-2.986;2023-04-01T03:45:53;17.69;60.52
71098;SHT35;58754;47.622;-2.986;2023-04-01T03:48:20;17.66;60.48
71098;SHT35;58754;47.622;-2.986;2023-04-01T03:50:46;17.69;60.49
71098;SHT35;58754;47.622;-2.986;2023-04-01T03:53:12;17.68;60.48
71098;SHT35;58754;47.622;-2.986;2023-04-01T03:55:39;17.68;60.50
71098;SHT35;58754;47.622;-2.986;2023-04-01T03:58:06;17.68;60.49
71098;SHT35;58754;47.622;-2.986;2023-04-01T04:00:32;17.66;60.49
71098;SHT35;58754;47.622;-2.986;2023-04-01T04:02:58;17.66;60.50
71098;SHT35;58754;47.622;-2.986;2023-04-01T04:05:25;17.65;60.47
71098;SHT35;58754;47.622;-2.986;2023-04-01T04:07:52;17.66;60.51
71098;SHT35;58754;47.622;-2.986;2023-04-01T04:10:18;17.66;60.49
71098;SHT35;58754;47.622;-2.986;2023-04-01T04:12:44;17.65;60.48
71098;SHT35;58754;47.622;-2.986;2023-04-01T04:15:10;17.68;60.47
71098;SHT35;58754;47.622;-2.986;2023-04-01T04:17:36;17.63;60.46
71098;SHT35;58754;47.622;-2.986;2023-04-01T04:20:02;17.66;60.47
71098;SHT35;58754;47.622;-2.986;2023-04-01T04:22:28;17.65;60.47
71098;SHT35;58754;47.622;-2.986;2023-04-01T04:24:53;17.66;60.47
71098;SHT35;58754;47.622;-2.986;2023-04-01T04:27:19;17.65;60.46
71098;SHT35;58754;47.622;-2.986;2023-04-01T04:29:45;17.66;60.48
71098;SHT35;58754;47.622;-2.986;2023-04-01T04:32:11;17.68;60.49
71098;SHT35;58754;47.622;-2.986;2023-04-01T04:34:37;17.65;60.49
71098;SHT35;58754;47.622;-2.986;2023-04-01T04:37:03;17.66;60.47
71098;SHT35;58754;47.622;-2.986;2023-04-01T04:39:29;17.66;60.49
71098;SHT35;58754;47.622;-2.986;2023-04-01T04:41:54;17.68;60.49
71098;SHT35;58754;47.622;-2.986;2023-04-01T04:44:20;17.65;60.46
71098;SHT35;58754;47.622;-2.986;2023-04-01T04:46:46;17.66;60.47
71098;SHT35;58754;47.622;-2.986;2023-04-01T04:49:11;17.68;60.45
71098;SHT35;58754;47.622;-2.986;2023-04-01T04:51:37;17.65;60.49
71098;SHT35;58754;47.622;-2.986;2023-04-01T04:54:04;17.65;60.45
71098;SHT35;58754;47.622;-2.986;2023-04-01T04:56:30;17.66;60.49
71098;SHT35;58754;47.622;-2.986;2023-04-01T04:58:57;17.63;60.44
71098;SHT35;58754;47.622;-2.986;2023-04-01T05:01:22;17.65;60.46
71098;SHT35;58754;47.622;-2.986;2023-04-01T05:03:48;17.63;60.45
71098;SHT35;58754;47.622;-2.986;2023-04-01T05:06:15;17.65;60.45
71098;SHT35;58754;47.622;-2.986;2023-04-01T05:08:42;17.63;60.48
71098;SHT35;58754;47.622;-2.986;2023-04-01T05:11:13;17.65;60.45
71098;SHT35;58754;47.622;-2.986;2023-04-01T05:13:41;17.63;60.43
71098;SHT35;58754;47.622;-2.986;2023-04-01T05:16:15;17.65;60.45
71098;SHT35;58754;47.622;-2.986;2023-04-01T05:18:42;17.63;60.49
71098;SHT35;58754;47.622;-2.986;2023-04-01T05:21:10;17.63;60.47
71098;SHT35;58754;47.622;-2.986;2023-04-01T05:23:36;17.65;60.48
71098;SHT35;58754;47.622;-2.986;2023-04-01T05:26:07;17.62;60.51
71098;SHT35;58754;47.622;-2.986;2023-04-01T05:28:33;17.62;60.49
71098;SHT35;58754;47.622;-2.986;2023-04-01T05:31:01;17.63;60.49
71098;SHT35;58754;47.622;-2.986;2023-04-01T05:33:29;17.66;60.48
71098;SHT35;58754;47.622;-2.986;2023-04-01T05:35:55;17.63;60.46
71098;SHT35;58754;47.622;-2.986;2023-04-01T05:38:21;17.63;60.47
71098;SHT35;58754;47.622;-2.986;2023-04-01T05:40:47;17.63;60.45
71098;SHT35;58754;47.622;-2.986;2023-04-01T05:43:13;17.63;60.46
71098;SHT35;58754;47.622;-2.986;2023-04-01T05:45:38;17.62;60.46
71098;SHT35;58754;47.622;-2.986;2023-04-01T05:48:04;17.63;60.51
71098;SHT35;58754;47.622;-2.986;2023-04-01T05:50:31;17.62;60.49
71098;SHT35;58754;47.622;-2.986;2023-04-01T05:52:57;17.62;60.45
71098;SHT35;58754;47.622;-2.986;2023-04-01T05:55:23;17.62;60.47
71098;SHT35;58754;47.622;-2.986;2023-04-01T05:57:48;17.62;60.44
71098;SHT35;58754;47.622;-2.986;2023-04-01T06:00:16;17.61;60.49
71098;SHT35;58754;47.622;-2.986;2023-04-01T06:02:42;17.62;60.49
71098;SHT35;58754;47.622;-2.986;2023-04-01T06:05:18;17.63;60.51
71098;SHT35;58754;47.622;-2.986;2023-04-01T06:07:44;17.62;60.49
71098;SHT35;58754;47.622;-2.986;2023-04-01T06:10:20;17.62;60.48
71098;SHT35;58754;47.622;-2.986;2023-04-01T06:13:11;17.59;60.52
71098;SHT35;58754;47.622;-2.986;2023-04-01T06:15:57;17.62;60.52
71098;SHT35;58754;47.622;-2.986;2023-04-01T06:18:35;17.59;60.49
71098;SHT35;58754;47.622;-2.986;2023-04-01T06:21:27;17.62;60.50
71098;SHT35;58754;47.622;-2.986;2023-04-01T06:24:05;17.61;60.50
71098;SHT35;58754;47.622;-2.986;2023-04-01T06:43:10;17.56;60.52
71098;SHT35;58754;47.622;-2.986;2023-04-01T06:49:00;17.58;60.57
71098;SHT35;58754;47.622;-2.986;2023-04-01T06:57:00;17.56;60.55
71098;SHT35;58754;47.622;-2.986;2023-04-01T06:59:32;17.56;60.54
71098;SHT35;58754;47.622;-2.986;2023-04-01T07:02:13;17.58;60.55
71098;SHT35;58754;47.622;-2.986;2023-04-01T07:04:44;17.59;60.53
71098;SHT35;58754;47.622;-2.986;2023-04-01T07:09:55;17.58;60.53
71098;SHT35;58754;47.622;-2.986;2023-04-01T07:15:05;17.58;60.58
71098;SHT35;58754;47.622;-2.986;2023-04-01T07:17:39;17.56;60.56
71098;SHT35;58754;47.622;-2.986;2023-04-01T07:20:20;17.56;60.54
71098;SHT35;58754;47.622;-2.986;2023-04-01T07:22:50;17.59;60.60
71098;SHT35;58754;47.622;-2.986;2023-04-01T07:25:29;17.56;60.59
71098;SHT35;58754;47.622;-2.986;2023-04-01T07:28:02;17.55;60.56
71098;SHT35;58754;47.622;-2.986;2023-04-01T07:31:07;17.59;60.59
71098;SHT35;58754;47.622;-2.986;2023-04-01T07:41:56;17.58;60.55
71098;SHT35;58754;47.622;-2.986;2023-04-01T07:52:44;17.58;60.59
71098;SHT35;58754;47.622;-2.986;2023-04-01T08:01:23;17.56;60.61
71098;SHT35;58754;47.622;-2.986;2023-04-01T08:07:30;17.54;60.62
71098;SHT35;58754;47.622;-2.986;2023-04-01T08:12:36;17.54;60.62
71098;SHT35;58754;47.622;-2.986;2023-04-01T08:17:48;17.55;60.63
71098;SHT35;58754;47.622;-2.986;2023-04-01T08:20:46;17.54;60.63
71098;SHT35;58754;47.622;-2.986;2023-04-01T08:23:19;17.51;60.58
71098;SHT35;58754;47.622;-2.986;2023-04-01T08:28:30;17.55;60.59
71098;SHT35;58754;47.622;-2.986;2023-04-01T08:31:20;17.54;60.60
71098;SHT35;58754;47.622;-2.986;2023-04-01T08:33:49;17.55;60.59
71098;SHT35;58754;47.622;-2.986;2023-04-01T08:38:53;17.55;60.61
71098;SHT35;58754;47.622;-2.986;2023-04-01T08:41:24;17.54;60.60
71098;SHT35;58754;47.622;-2.986;2023-04-01T08:47:23;17.55;60.59
71098;SHT35;58754;47.622;-2.986;2023-04-01T08:50:06;17.55;60.57
71098;SHT35;58754;47.622;-2.986;2023-04-01T08:53:21;17.58;60.54
71098;SHT35;58754;47.622;-2.986;2023-04-01T08:56:12;17.54;60.55
71098;SHT35;58754;47.622;-2.986;2023-04-01T09:07:34;17.55;60.57
71098;SHT35;58754;47.622;-2.986;2023-04-01T09:26:51;17.55;60.60
71098;SHT35;58754;47.622;-2.986;2023-04-01T09:42:56;17.52;60.60
71098;SHT35;58754;47.622;-2.986;2023-04-01T09:45:35;17.52;60.58
71098;SHT35;58754;47.622;-2.986;2023-04-01T09:51:05;17.52;60.60
71098;SHT35;58754;47.622;-2.986;2023-04-01T10:13:55;17.52;60.51
71098;SHT35;58754;47.622;-2.986;2023-04-01T10:22:25;17.52;60.50
71098;SHT35;58754;47.622;-2.986;2023-04-01T10:30:42;17.51;60.50
71098;SHT35;58754;47.622;-2.986;2023-04-01T10:33:38;17.49;60.50
71098;SHT35;58754;47.622;-2.986;2023-04-01T10:51:16;17.52;60.48
71098;SHT35;58754;47.622;-2.986;2023-04-01T10:53:27;17.52;60.49
71098;SHT35;58754;47.622;-2.986;2023-04-01T10:59:01;17.49;60.47
71098;SHT35;58754;47.622;-2.986;2023-04-01T11:10:15;17.49;60.44
71098;SHT35;58754;47.622;-2.986;2023-04-01T11:27:21;17.48;60.48
71098;SHT35;58754;47.622;-2.986;2023-04-01T11:35:31;17.51;60.48
71098;SHT35;58754;47.622;-2.986;2023-04-01T11:38:04;17.49;60.40
71098;SHT35;58754;47.622;-2.986;2023-04-01T11:41:14;17.48;60.40
71098;SHT35;58754;47.622;-2.986;2023-04-01T11:49:29;17.49;60.47
71098;SHT35;58754;47.622;-2.986;2023-04-01T12:06:02;17.48;60.30
71098;SHT35;58754;47.622;-2.986;2023-04-01T12:08:55;17.48;60.27
71098;SHT35;58754;47.622;-2.986;2023-04-01T12:14:39;17.51;60.23
71098;SHT35;58754;47.622;-2.986;2023-04-01T12:20:20;17.49;60.22
71098;SHT35;58754;47.622;-2.986;2023-04-01T12:23:10;17.48;60.20
71098;SHT35;58754;47.622;-2.986;2023-04-01T12:26:43;17.49;60.18
71098;SHT35;58754;47.622;-2.986;2023-04-01T12:28:54;17.51;60.21
71098;SHT35;58754;47.622;-2.986;2023-04-01T12:31:31;17.49;60.20
71098;SHT35;58754;47.622;-2.986;2023-04-01T13:00:03;17.48;60.19
71098;SHT35;58754;47.622;-2.986;2023-04-01T13:11:08;17.49;60.18
71098;SHT35;58754;47.622;-2.986;2023-04-01T13:16:42;17.49;60.18
71098;SHT35;58754;47.622;-2.986;2023-04-01T13:19:53;17.51;60.15
71098;SHT35;58754;47.622;-2.986;2023-04-01T13:22:28;17.51;60.18
71098;SHT35;58754;47.622;-2.986;2023-04-01T13:27:31;17.49;60.17
71098;SHT35;58754;47.622;-2.986;2023-04-01T13:43:49;17.51;60.09
71098;SHT35;58754;47.622;-2.986;2023-04-01T13:52:22;17.52;60.03
71098;SHT35;58754;47.622;-2.986;2023-04-01T13:57:52;17.51;60.04
71098;SHT35;58754;47.622;-2.986;2023-04-01T14:09:10;17.51;60.01
71098;SHT35;58754;47.622;-2.986;2023-04-01T14:11:24;17.52;59.98
71098;SHT35;58754;47.622;-2.986;2023-04-01T14:22:03;17.52;60.01
71098;SHT35;58754;47.622;-2.986;2023-04-01T14:28:12;17.52;59.95
71098;SHT35;58754;47.622;-2.986;2023-04-01T14:36:48;17.54;59.95
71098;SHT35;58754;47.622;-2.986;2023-04-01T14:42:41;17.52;59.95
71098;SHT35;58754;47.622;-2.986;2023-04-01T14:47:48;17.49;59.97
71098;SHT35;58754;47.622;-2.986;2023-04-01T14:50:19;17.52;59.94
71098;SHT35;58754;47.622;-2.986;2023-04-01T15:06:53;17.52;59.95
71098;SHT35;58754;47.622;-2.986;2023-04-01T15:09:14;17.52;59.93
71098;SHT35;58754;47.622;-2.986;2023-04-01T15:25:41;17.51;59.94
71098;SHT35;58754;47.622;-2.986;2023-04-01T15:31:04;17.51;59.93
71098;SHT35;58754;47.622;-2.986;2023-04-01T15:41:42;17.51;59.91
71098;SHT35;58754;47.622;-2.986;2023-04-01T15:46:57;17.52;59.89
71098;SHT35;58754;47.622;-2.986;2023-04-01T15:49:42;17.54;59.90
71098;SHT35;58754;47.622;-2.986;2023-04-01T16:16:44;17.52;59.89
71098;SHT35;58754;47.622;-2.986;2023-04-01T16:19:36;17.55;59.87
71098;SHT35;58754;47.622;-2.986;2023-04-01T16:24:56;17.52;59.88
71098;SHT35;58754;47.622;-2.986;2023-04-01T16:27:36;17.56;59.84
71098;SHT35;58754;47.622;-2.986;2023-04-01T16:33:14;17.56;59.87
71098;SHT35;58754;47.622;-2.986;2023-04-01T16:38:40;17.55;59.79
71098;SHT35;58754;47.622;-2.986;2023-04-01T16:44:18;17.58;59.81
71098;SHT35;58754;47.622;-2.986;2023-04-01T16:46:49;17.58;59.82
71098;SHT35;58754;47.622;-2.986;2023-04-01T16:49:58;17.56;59.84
71098;SHT35;58754;47.622;-2.986;2023-04-01T16:52:48;17.56;59.82
71098;SHT35;58754;47.622;-2.986;2023-04-01T16:55:19;17.56;59.80
71098;SHT35;58754;47.622;-2.986;2023-04-01T16:57:56;17.55;59.82
71098;SHT35;58754;47.622;-2.986;2023-04-01T17:00:29;17.58;59.79
71098;SHT35;58754;47.622;-2.986;2023-04-01T17:03:11;17.59;59.76
71098;SHT35;58754;47.622;-2.986;2023-04-01T17:05:39;17.58;59.78
71098;SHT35;58754;47.622;-2.986;2023-04-01T17:16:44;17.59;59.76
71098;SHT35;58754;47.622;-2.986;2023-04-01T17:22:25;17.58;59.71
71098;SHT35;58754;47.622;-2.986;2023-04-01T17:27:50;17.58;59.75
71098;SHT35;58754;47.622;-2.986;2023-04-01T17:30:41;17.61;59.67
71098;SHT35;58754;47.622;-2.986;2023-04-01T17:35:43;17.59;59.62
71098;SHT35;58754;47.622;-2.986;2023-04-01T17:38:34;17.59;59.60
71098;SHT35;58754;47.622;-2.986;2023-04-01T17:46:50;17.61;59.62
71098;SHT35;58754;47.622;-2.986;2023-04-01T17:49:39;17.61;59.59
71098;SHT35;58754;47.622;-2.986;2023-04-01T17:52:16;17.61;59.61
71098;SHT35;58754;47.622;-2.986;2023-04-01T17:54:57;17.63;59.56
71098;SHT35;58754;47.622;-2.986;2023-04-01T18:00:23;17.61;59.62
71098;SHT35;58754;47.622;-2.986;2023-04-01T18:03:12;17.61;59.61
71098;SHT35;58754;47.622;-2.986;2023-04-01T18:06:01;17.61;59.62
71098;SHT35;58754;47.622;-2.986;2023-04-01T18:08:56;17.61;59.65
71098;SHT35;58754;47.622;-2.986;2023-04-01T18:15:00;17.61;59.64
71098;SHT35;58754;47.622;-2.986;2023-04-01T18:22:33;17.61;59.64
71098;SHT35;58754;47.622;-2.986;2023-04-01T18:25:12;17.59;59.64
71098;SHT35;58754;47.622;-2.986;2023-04-01T18:27:43;17.62;59.68
71098;SHT35;58754;47.622;-2.986;2023-04-01T18:30:28;17.62;59.70
71098;SHT35;58754;47.622;-2.986;2023-04-01T18:33:17;17.61;59.72
71098;SHT35;58754;47.622;-2.986;2023-04-01T18:44:34;17.61;59.73
71098;SHT35;58754;47.622;-2.986;2023-04-01T18:52:45;17.58;59.75
71098;SHT35;58754;47.622;-2.986;2023-04-01T19:00:44;17.59;59.75
71098;SHT35;58754;47.622;-2.986;2023-04-01T19:06:01;17.56;59.76
71098;SHT35;58754;47.622;-2.986;2023-04-01T19:08:35;17.59;59.80
71098;SHT35;58754;47.622;-2.986;2023-04-01T19:11:27;17.58;59.75
71098;SHT35;58754;47.622;-2.986;2023-04-01T19:14:19;17.58;59.78
71098;SHT35;58754;47.622;-2.986;2023-04-01T19:25:26;17.58;59.78
71098;SHT35;58754;47.622;-2.986;2023-04-01T19:28:34;17.58;59.77
71098;SHT35;58754;47.622;-2.986;2023-04-01T19:31:17;17.61;59.81
71098;SHT35;58754;47.622;-2.986;2023-04-01T19:39:24;17.58;59.80
71098;SHT35;58754;47.622;-2.986;2023-04-01T19:42:15;17.56;59.83
71098;SHT35;58754;47.622;-2.986;2023-04-01T19:45:51;17.58;59.82
71098;SHT35;58754;47.622;-2.986;2023-04-01T19:51:12;17.58;59.79
71098;SHT35;58754;47.622;-2.986;2023-04-01T19:56:39;17.55;59.82
71098;SHT35;58754;47.622;-2.986;2023-04-01T19:59:37;17.55;59.81
71098;SHT35;58754;47.622;-2.986;2023-04-01T20:02:30;17.55;59.83
71098;SHT35;58754;47.622;-2.986;2023-04-01T20:05:00;17.55;59.81
71098;SHT35;58754;47.622;-2.986;2023-04-01T20:07:52;17.56;59.82
71098;SHT35;58754;47.622;-2.986;2023-04-01T20:10:32;17.58;59.83
71098;SHT35;58754;47.622;-2.986;2023-04-01T20:13:19;17.56;59.86
71098;SHT35;58754;47.622;-2.986;2023-04-01T20:16:07;17.58;59.86
71098;SHT35;58754;47.622;-2.986;2023-04-01T20:18:51;17.55;59.83
71098;SHT35;58754;47.622;-2.986;2023-04-01T20:21:28;17.56;59.86
71098;SHT35;58754;47.622;-2.986;2023-04-01T20:26:41;17.58;59.82
71098;SHT35;58754;47.622;-2.986;2023-04-01T20:35:19;17.59;59.83
71098;SHT35;58754;47.622;-2.986;2023-04-01T20:40:49;17.56;59.88
71098;SHT35;58754;47.622;-2.986;2023-04-01T20:51:30;17.59;59.86
71098;SHT35;58754;47.622;-2.986;2023-04-01T20:57:06;17.59;59.94
71098;SHT35;58754;47.622;-2.986;2023-04-01T21:05:19;17.55;59.92
71098;SHT35;58754;47.622;-2.986;2023-04-01T21:13:36;17.56;59.93
71098;SHT35;58754;47.622;-2.986;2023-04-01T21:21:59;17.56;59.96
71098;SHT35;58754;47.622;-2.986;2023-04-01T21:28:02;17.55;59.98
71098;SHT35;58754;47.622;-2.986;2023-04-01T21:52:51;17.56;59.98
71098;SHT35;58754;47.622;-2.986;2023-04-01T21:58:37;17.54;59.99
71098;SHT35;58754;47.622;-2.986;2023-04-01T22:01:45;17.51;60.01
71098;SHT35;58754;47.622;-2.986;2023-04-01T22:07:14;17.52;60.01
71098;SHT35;58754;47.622;-2.986;2023-04-01T22:12:41;17.55;59.99
71098;SHT35;58754;47.622;-2.986;2023-04-01T22:15:52;17.55;60.01
71098;SHT35;58754;47.622;-2.986;2023-04-01T22:18:30;17.54;60.02
71098;SHT35;58754;47.622;-2.986;2023-04-01T22:21:13;17.52;60.00
71098;SHT35;58754;47.622;-2.986;2023-04-01T22:26:49;17.56;60.01
71098;SHT35;58754;47.622;-2.986;2023-04-01T22:29:56;17.55;60.01
71098;SHT35;58754;47.622;-2.986;2023-04-01T22:32:49;17.55;60.04
71098;SHT35;58754;47.622;-2.986;2023-04-01T22:35:53;17.54;60.02
71098;SHT35;58754;47.622;-2.986;2023-04-01T22:38:48;17.56;60.03
71098;SHT35;58754;47.622;-2.986;2023-04-01T22:41:27;17.52;60.01
71098;SHT35;58754;47.622;-2.986;2023-04-01T22:43:57;17.56;60.00
71098;SHT35;58754;47.622;-2.986;2023-04-01T22:52:40;17.54;60.00
71098;SHT35;58754;47.622;-2.986;2023-04-01T22:54:49;17.54;59.98
71098;SHT35;58754;47.622;-2.986;2023-04-01T23:00:26;17.54;60.03
71098;SHT35;58754;47.622;-2.986;2023-04-01T23:03:28;17.52;60.01
71098;SHT35;58754;47.622;-2.986;2023-04-01T23:05:57;17.54;60.02
71098;SHT35;58754;47.622;-2.986;2023-04-01T23:11:33;17.52;60.00
71098;SHT35;58754;47.622;-2.986;2023-04-01T23:30:51;17.54;59.96
71098;SHT35;58754;47.622;-2.986;2023-04-01T23:33:23;17.51;59.98
71098;SHT35;58754;47.622;-2.986;2023-04-01T23:36:00;17.52;59.98
71098;SHT35;58754;47.622;-2.986;2023-04-01T23:38:40;17.51;60.02
71098;SHT35;58754;47.622;-2.986;2023-04-01T23:41:15;17.52;59.98
71098;SHT35;58754;47.622;-2.986;2023-04-01T23:43:43;17.51;60.00
71098;SHT35;58754;47.622;-2.986;2023-04-01T23:46:11;17.48;59.99
71098;SHT35;58754;47.622;-2.986;2023-04-01T23:48:41;17.52;59.96
71098;SHT35;58754;47.622;-2.986;2023-04-01T23:51:26;17.52;59.99
71098;SHT35;58754;47.622;-2.986;2023-04-01T23:54:04;17.51;59.97
71098;SHT35;58754;47.622;-2.986;2023-04-01T23:56:43;17.52;60.00
71098;SHT35;58754;47.622;-2.986;2023-04-01T23:59:28;17.54;59.97
